Time;durP1;ratioP1;P1;durP2;ratioP2;P2;SDS_P1;SDS_P2;PMS_P1;PMS_P2;Temp;Humidity;BMP_temperature;BMP_pressure;BME280_temperature;BME280_humidity;BME280_pressure;Samples;Min_cycle;Max_cycle;Signal;HPM_P1;HPM_P2
2022/05/16 00:02:13;;;;;;;;;7.50;7.50;;;26.61;97931.02;;;;117087;1193;25403;-57
2022/05/16 00:04:43;;;;;;;;;8.50;8.50;;;26.60;97929.81;;;;117051;1193;25216;-57
2022/05/16 00:07:13;;;;;;;;;7.33;7.33;;;26.61;97932.80;;;;117104;1193;25503;-56
2022/05/16 00:09:41;;;;;;;;;11.25;9.25;;;26.61;97930.35;;;;117056;1193;24802;-56
2022/05/16 00:12:10;;;;;;;;;8.25;8.25;;;26.61;97931.13;;;;116975;1192;25050;-56
2022/05/16 00:14:39;;;;;;;;;9.75;8.25;;;26.58;97933.52;;;;117061;1193;25578;-57
2022/05/16 00:17:08;;;;;;;;;9.00;8.50;;;26.57;97931.98;;;;117054;1193;25540;-56
2022/05/16 00:19:35;;;;;;;;;9.33;7.00;;;26.57;97930.36;;;;117066;1193;25364;-57
2022/05/16 00:22:03;;;;;;;;;11.33;9.00;;;26.57;97928.71;;;;117065;1193;25606;-57
2022/05/16 00:24:32;;;;;;;;;11.75;9.00;;;26.55;97929.46;;;;117080;1193;25644;-57
2022/05/16 00:27:00;;;;;;;;;10.25;10.25;;;26.57;97926.96;;;;117120;1193;25204;-56
2022/05/16 00:29:28;;;;;;;;;9.00;8.75;;;26.56;97926.80;;;;117061;1193;25196;-56
2022/05/16 00:31:56;;;;;;;;;8.75;8.75;;;26.54;97926.29;;;;117096;1193;25284;-56
2022/05/16 00:34:24;;;;;;;;;10.00;10.00;;;26.54;97924.73;;;;117143;1193;25256;-57
2022/05/16 00:36:52;;;;;;;;;10.33;10.33;;;26.55;97925.13;;;;117095;1193;25096;-55
2022/05/16 00:39:22;;;;;;;;;9.50;9.50;;;26.57;97925.66;;;;117074;1193;25600;-56
2022/05/16 00:41:51;;;;;;;;;14.00;10.50;;;26.58;97925.56;;;;117069;1193;24854;-56
2022/05/16 00:44:20;;;;;;;;;9.00;9.00;;;26.56;97926.38;;;;117074;1193;24708;-56
2022/05/16 00:46:50;;;;;;;;;8.67;7.00;;;26.56;97925.09;;;;117024;1193;25527;-56
2022/05/16 00:49:27;;;;;;;;;10.50;9.50;;;26.55;97922.65;;;;117074;1193;25423;-56
2022/05/16 00:52:03;;;;;;;;;8.75;8.75;;;26.57;97919.45;;;;117167;1192;25152;-56
2022/05/16 00:54:48;;;;;;;;;10.50;10.50;;;26.58;97920.14;;;;117016;1193;26638;-56
2022/05/16 00:57:27;;;;;;;;;12.25;10.25;;;26.59;97918.77;;;;117064;1194;26344;-56
2022/05/16 01:00:09;;;;;;;;;8.75;7.75;;;26.60;97916.47;;;;117083;1194;25200;-57
2022/05/16 01:05:28;;;;;;;;;8.25;8.25;;;26.61;97913.92;;;;117049;1193;25198;-57
2022/05/16 01:07:59;;;;;;;;;10.25;10.00;;;26.58;97912.23;;;;117035;1193;25064;-57
2022/05/16 01:10:27;;;;;;;;;12.00;9.33;;;26.57;97911.09;;;;117094;1192;25598;-57
2022/05/16 01:12:54;;;;;;;;;10.00;9.33;;;26.57;97908.89;;;;117081;1191;25458;-57
2022/05/16 01:15:32;;;;;;;;;10.25;10.00;;;26.54;97906.96;;;;117031;1193;24983;-57
2022/05/16 01:18:00;;;;;;;;;7.50;7.50;;;26.55;97904.31;;;;117041;1193;25139;-56
2022/05/16 01:20:48;;;;;;;;;10.50;8.50;;;26.56;97904.06;;;;117024;1193;25211;-57
2022/05/16 01:23:18;;;;;;;;;9.25;9.25;;;26.58;97899.81;;;;117077;1192;24898;-57
2022/05/16 01:25:49;;;;;;;;;11.50;11.50;;;26.58;97898.27;;;;117003;1193;25143;-58
2022/05/16 01:28:19;;;;;;;;;5.00;5.00;;;26.55;97894.77;;;;116973;1193;25277;-57
2022/05/16 01:30:49;;;;;;;;;9.00;9.00;;;26.54;97895.65;;;;117098;1193;24799;-57
2022/05/16 01:33:19;;;;;;;;;7.50;7.50;;;26.55;97896.54;;;;116995;1193;24905;-58
2022/05/16 01:35:47;;;;;;;;;13.33;11.00;;;26.54;97894.92;;;;117064;1193;25056;-58
2022/05/16 01:38:21;;;;;;;;;8.33;8.33;;;26.52;97898.37;;;;116988;1193;24988;-59
2022/05/16 01:40:56;;;;;;;;;11.75;9.50;;;26.50;97898.96;;;;117042;1193;25639;-57
2022/05/16 01:43:28;;;;;;;;;10.75;9.25;;;26.50;97905.72;;;;117043;1193;24958;-57
2022/05/16 01:45:56;;;;;;;;;8.50;8.50;;;26.51;97907.54;;;;117005;1193;25661;-57
2022/05/16 01:48:24;;;;;;;;;12.00;10.67;;;26.51;97910.69;;;;117292;1193;25373;-57
2022/05/16 01:50:57;;;;;;;;;8.75;6.25;;;26.55;97909.79;;;;117102;1193;25038;-56
2022/05/16 01:53:25;;;;;;;;;10.25;10.00;;;26.53;97904.44;;;;117102;1191;26011;-58
2022/05/16 01:55:53;;;;;;;;;10.00;8.75;;;26.53;97901.42;;;;117064;1192;25386;-57
2022/05/16 01:58:22;;;;;;;;;9.75;7.75;;;26.51;97897.02;;;;117065;1192;25168;-57
2022/05/16 02:00:51;;;;;;;;;9.33;7.67;;;26.49;97894.34;;;;117104;1191;25295;-57
2022/05/16 02:03:19;;;;;;;;;12.00;10.00;;;26.49;97893.31;;;;117126;1193;25405;-57
2022/05/16 02:05:47;;;;;;;;;6.25;6.25;;;26.48;97891.83;;;;117057;1193;25028;-57
2022/05/16 02:08:16;;;;;;;;;11.25;10.00;;;26.48;97892.58;;;;117114;1191;25767;-57
2022/05/16 02:10:45;;;;;;;;;9.67;9.67;;;26.48;97898.67;;;;117103;1193;25575;-57
2022/05/16 02:13:13;;;;;;;;;7.00;7.00;;;26.48;97903.02;;;;117017;1193;25137;-58
2022/05/16 02:15:44;;;;;;;;;6.50;6.50;;;26.47;97903.70;;;;117033;1191;25462;-57
2022/05/16 02:18:12;;;;;;;;;8.50;8.50;;;26.45;97905.75;;;;116995;1193;24962;-57
2022/05/16 02:20:40;;;;;;;;;8.50;8.00;;;26.46;97904.70;;;;117186;1192;27060;-57
2022/05/16 02:25:57;;;;;;;;;9.25;8.50;;;26.47;97896.32;;;;117076;1193;25459;-57
2022/05/16 02:28:26;;;;;;;;;10.75;10.75;;;26.46;97896.03;;;;117178;1190;24948;-58
2022/05/16 02:30:55;;;;;;;;;12.75;10.75;;;26.45;97892.47;;;;117123;1193;25220;-57
2022/05/16 02:33:23;;;;;;;;;9.75;9.75;;;26.46;97892.45;;;;117154;1193;26216;-59
2022/05/16 02:35:51;;;;;;;;;7.50;7.50;;;26.47;97894.45;;;;117099;1192;25232;-57
2022/05/16 02:38:19;;;;;;;;;11.67;9.67;;;26.45;97895.07;;;;117090;1191;25852;-57
2022/05/16 02:40:48;;;;;;;;;11.00;9.75;;;26.44;97896.39;;;;117156;1192;25549;-57
2022/05/16 02:43:16;;;;;;;;;9.75;9.75;;;26.44;97895.45;;;;117102;1193;25468;-57
2022/05/16 02:45:46;;;;;;;;;12.00;10.50;;;26.43;97897.81;;;;117115;1192;25378;-57
2022/05/16 02:48:14;;;;;;;;;10.00;10.00;;;26.44;97901.35;;;;117183;1193;27134;-57
2022/05/16 02:50:42;;;;;;;;;9.75;8.75;;;26.44;97903.09;;;;117119;1193;25775;-57
2022/05/16 02:53:10;;;;;;;;;10.50;8.75;;;26.44;97905.25;;;;117127;1191;25380;-57
2022/05/16 02:55:39;;;;;;;;;10.67;10.67;;;26.44;97908.21;;;;117101;1192;25774;-57
2022/05/16 02:58:08;;;;;;;;;7.00;7.00;;;26.43;97911.45;;;;117094;1192;25699;-57
2022/05/16 03:00:38;;;;;;;;;9.00;9.00;;;26.42;97909.91;;;;117102;1193;25009;-57
2022/05/16 03:03:06;;;;;;;;;10.00;10.00;;;26.42;97911.94;;;;117068;1193;25223;-57
2022/05/16 03:05:34;;;;;;;;;11.75;9.50;;;26.40;97916.91;;;;117176;1191;25017;-58
2022/05/16 03:08:02;;;;;;;;;11.25;9.25;;;26.41;97913.51;;;;117035;1192;25012;-57
2022/05/16 03:10:30;;;;;;;;;6.25;6.25;;;26.39;97918.05;;;;117076;1193;26145;-57
2022/05/16 03:12:58;;;;;;;;;9.00;8.00;;;26.39;97919.14;;;;117056;1193;25590;-56
2022/05/16 03:15:29;;;;;;;;;8.33;7.33;;;26.37;97919.89;;;;117063;1193;25209;-57
2022/05/16 03:17:58;;;;;;;;;12.00;10.00;;;26.36;97918.58;;;;117060;1193;25670;-57
2022/05/16 03:20:26;;;;;;;;;10.50;10.50;;;26.38;97920.70;;;;117145;1192;25665;-58
2022/05/16 03:22:54;;;;;;;;;8.50;8.00;;;26.39;97924.33;;;;117093;1192;25033;-59
2022/05/16 03:25:22;;;;;;;;;10.50;10.50;;;26.38;97928.67;;;;117183;1193;25142;-57
2022/05/16 03:27:50;;;;;;;;;9.00;9.00;;;26.40;97929.56;;;;117047;1193;25595;-60
2022/05/16 03:30:19;;;;;;;;;9.33;8.00;;;26.43;97929.98;;;;117170;1193;25650;-58
2022/05/16 03:32:46;;;;;;;;;6.50;6.00;;;26.44;97928.78;;;;117137;1193;25574;-58
2022/05/16 03:35:14;;;;;;;;;9.00;8.00;;;26.44;97929.42;;;;116972;1193;25302;-59
2022/05/16 03:37:43;;;;;;;;;11.50;10.00;;;26.41;97930.28;;;;117025;1193;25565;-58
2022/05/16 03:42:57;;;;;;;;;11.00;9.33;;;26.37;97938.02;;;;117084;1193;25420;-61
2022/05/16 03:45:26;;;;;;;;;8.00;8.00;;;26.37;97934.72;;;;117081;1193;24877;-60
2022/05/16 03:47:54;;;;;;;;;12.75;11.75;;;26.37;97933.91;;;;117030;1193;25679;-59
2022/05/16 03:50:21;;;;;;;;;3.00;2.75;;;26.36;97941.04;;;;117063;1193;25070;-59
2022/05/16 03:52:49;;;;;;;;;11.50;11.50;;;26.36;97942.90;;;;117067;1193;25207;-59
2022/05/16 03:55:17;;;;;;;;;4.00;4.00;;;26.35;97947.13;;;;117050;1193;25755;-58
2022/05/16 03:57:46;;;;;;;;;9.00;9.00;;;26.36;97950.73;;;;117071;1193;25101;-58
2022/05/16 04:00:15;;;;;;;;;10.00;10.00;;;26.36;97950.46;;;;117056;1193;25047;-58
2022/05/16 04:02:44;;;;;;;;;12.75;9.00;;;26.36;97952.55;;;;117119;1193;25059;-58
2022/05/16 04:05:20;;;;;;;;;15.00;12.67;;;26.40;97953.59;;;;117175;1192;24750;-58
2022/05/16 04:07:49;;;;;;;;;9.75;9.50;;;26.43;97953.47;;;;117052;1193;24901;-61
2022/05/16 04:10:17;;;;;;;;;6.00;5.50;;;26.43;97956.48;;;;117069;1193;25226;-58
2022/05/16 04:12:46;;;;;;;;;11.00;9.00;;;26.41;97959.10;;;;117089;1191;24782;-57
2022/05/16 04:15:14;;;;;;;;;10.33;9.33;;;26.42;97962.65;;;;117127;1193;25586;-61
2022/05/16 04:17:43;;;;;;;;;12.00;11.00;;;26.40;97962.96;;;;117081;1192;25105;-58
2022/05/16 04:20:12;;;;;;;;;11.00;9.00;;;26.42;97963.67;;;;117072;1193;24942;-59
2022/05/16 04:22:41;;;;;;;;;6.75;6.75;;;26.41;97964.84;;;;117116;1193;26198;-59
2022/05/16 04:25:13;;;;;;;;;9.67;9.67;;;26.42;97963.05;;;;117109;1193;24739;-59
2022/05/16 04:27:41;;;;;;;;;7.50;7.50;;;26.41;97963.34;;;;117092;1193;25877;-57
2022/05/16 04:30:10;;;;;;;;;14.00;10.33;;;26.44;97967.86;;;;117086;1191;25882;-56
2022/05/16 04:32:38;;;;;;;;;8.33;8.00;;;26.47;97972.31;;;;117175;1193;25730;-57
2022/05/16 04:35:11;;;;;;;;;9.75;9.50;;;26.48;97972.52;;;;117068;1191;25424;-59
2022/05/16 04:37:39;;;;;;;;;14.00;12.00;;;26.50;97973.77;;;;117112;1193;24920;-59
2022/05/16 04:40:09;;;;;;;;;11.75;11.75;;;26.49;97973.28;;;;117050;1193;25064;-60
2022/05/16 04:42:40;;;;;;;;;13.25;12.00;;;26.47;97968.88;;;;117030;1193;24979;-58
2022/05/16 04:45:21;;;;;;;;;10.75;9.00;;;26.45;97969.98;;;;117063;1193;24975;-62
2022/05/16 04:47:52;;;;;;;;;10.50;10.00;;;26.46;97969.11;;;;117049;1193;24747;-57
2022/05/16 04:50:23;;;;;;;;;12.50;12.50;;;26.44;97969.99;;;;117042;1193;25432;-57
2022/05/16 04:52:51;;;;;;;;;12.25;12.25;;;26.45;97969.95;;;;117094;1193;25201;-57
2022/05/16 04:55:19;;;;;;;;;11.75;11.25;;;26.47;97972.30;;;;117043;1193;25035;-57
2022/05/16 04:57:48;;;;;;;;;11.00;10.67;;;26.45;97970.86;;;;117100;1193;25079;-57
2022/05/16 05:00:18;;;;;;;;;9.00;8.25;;;26.45;97974.41;;;;117129;1193;24751;-56
2022/05/16 05:02:46;;;;;;;;;12.00;11.50;;;26.48;97977.15;;;;117043;1193;25071;-58
2022/05/16 05:05:15;;;;;;;;;13.00;9.00;;;26.47;97975.58;;;;117150;1193;25157;-57
2022/05/16 05:07:45;;;;;;;;;14.00;11.67;;;26.47;97976.59;;;;117123;1191;25632;-57
2022/05/16 05:16:15;;;;;;;;;10.50;10.00;;;26.49;97975.98;;;;117047;1193;24814;-57
2022/05/16 05:18:43;;;;;;;;;13.00;12.00;;;26.54;97979.14;;;;117016;1192;26036;-57
2022/05/16 05:21:12;;;;;;;;;11.25;10.75;;;26.57;97980.34;;;;117041;1194;25193;-57
2022/05/16 05:23:40;;;;;;;;;6.50;6.50;;;26.52;97981.63;;;;116997;1193;24921;-57
2022/05/16 05:26:10;;;;;;;;;13.75;10.25;;;26.50;97983.39;;;;117093;1193;25535;-57
2022/05/16 05:28:39;;;;;;;;;12.75;11.25;;;26.49;97986.22;;;;117008;1192;25812;-58
2022/05/16 05:31:12;;;;;;;;;9.25;9.25;;;26.50;97985.63;;;;117005;1193;25163;-57
2022/05/16 05:33:41;;;;;;;;;13.67;12.00;;;26.51;97986.14;;;;117048;1193;25276;-57
2022/05/16 05:36:09;;;;;;;;;11.67;10.67;;;26.53;97980.70;;;;117127;1191;26390;-56
2022/05/16 05:38:37;;;;;;;;;10.00;8.00;;;26.52;97981.71;;;;117003;1194;25383;-57
2022/05/16 05:41:07;;;;;;;;;14.25;11.75;;;26.51;97978.69;;;;117105;1191;25746;-57
2022/05/16 05:43:35;;;;;;;;;13.33;10.33;;;26.50;97973.36;;;;117037;1193;25608;-56
2022/05/16 05:46:04;;;;;;;;;10.25;10.25;;;26.50;97969.56;;;;117000;1193;25698;-57
2022/05/16 05:48:33;;;;;;;;;9.75;8.25;;;26.51;97973.42;;;;117086;1193;25192;-57
2022/05/16 05:51:01;;;;;;;;;11.00;10.67;;;26.53;97973.48;;;;117131;1193;25350;-57
2022/05/16 05:53:29;;;;;;;;;9.75;7.75;;;26.53;97973.31;;;;117108;1193;25025;-57
2022/05/16 05:55:57;;;;;;;;;15.00;11.25;;;26.56;97971.02;;;;117039;1193;24813;-57
2022/05/16 05:58:26;;;;;;;;;12.67;11.33;;;26.54;97965.92;;;;117149;1193;25562;-57
2022/05/16 06:00:54;;;;;;;;;9.50;9.50;;;26.55;97962.23;;;;117036;1193;25162;-59
2022/05/16 06:03:22;;;;;;;;;6.00;5.50;;;26.54;97966.64;;;;117059;1193;25168;-58
2022/05/16 06:05:50;;;;;;;;;11.75;11.75;;;26.55;97962.27;;;;116997;1193;25078;-57
2022/05/16 06:08:18;;;;;;;;;9.00;9.00;;;26.53;97962.45;;;;117012;1193;25229;-57
2022/05/16 06:10:47;;;;;;;;;8.75;8.50;;;26.51;97964.14;;;;117151;1191;24955;-57
2022/05/16 06:13:16;;;;;;;;;8.50;7.75;;;26.54;97958.89;;;;117067;1192;25144;-56
2022/05/16 06:15:44;;;;;;;;;10.00;10.00;;;26.56;97962.30;;;;117050;1193;25827;-57
2022/05/16 06:18:12;;;;;;;;;11.00;11.00;;;26.57;97956.70;;;;117073;1193;24830;-58
2022/05/16 06:20:40;;;;;;;;;14.50;12.00;;;26.56;97958.84;;;;117028;1193;25418;-57
2022/05/16 06:23:08;;;;;;;;;10.25;9.25;;;26.57;97960.14;;;;117020;1194;25696;-57
2022/05/16 06:25:42;;;;;;;;;14.67;11.00;;;26.57;97961.48;;;;117054;1193;25136;-57
2022/05/16 06:28:17;;;;;;;;;10.67;10.67;;;26.58;97963.95;;;;117116;1192;24758;-57
2022/05/16 06:30:47;;;;;;;;;11.50;11.25;;;26.60;97962.52;;;;117038;1193;25544;-57
2022/05/16 06:33:16;;;;;;;;;11.33;11.33;;;26.62;97958.42;;;;117016;1193;24821;-57
2022/05/16 06:35:45;;;;;;;;;14.33;11.67;;;26.61;97960.14;;;;116984;1193;26091;-57
2022/05/16 06:38:20;;;;;;;;;13.00;11.75;;;26.62;97957.82;;;;117029;1193;24831;-57
2022/05/16 06:40:48;;;;;;;;;9.50;8.50;;;26.65;97956.17;;;;117057;1192;25264;-57
2022/05/16 06:43:18;;;;;;;;;15.00;11.67;;;26.67;97952.48;;;;117038;1193;25711;-58
2022/05/16 06:45:46;;;;;;;;;18.50;13.25;;;26.66;97949.84;;;;117022;1193;25844;-57
2022/05/16 06:48:14;;;;;;;;;16.67;14.33;;;26.65;97945.60;;;;117122;1191;25690;-58
2022/05/16 06:50:44;;;;;;;;;10.25;10.25;;;26.65;97939.41;;;;116997;1193;24837;-57
2022/05/16 06:53:15;;;;;;;;;9.33;9.00;;;26.63;97934.85;;;;117126;1193;25032;-57
2022/05/16 06:55:43;;;;;;;;;10.67;9.33;;;26.64;97938.55;;;;117117;1193;25671;-57
2022/05/16 06:58:11;;;;;;;;;11.50;11.50;;;26.68;97937.59;;;;117127;1193;25581;-57
2022/05/16 07:00:39;;;;;;;;;11.50;11.50;;;26.68;97937.21;;;;117198;1193;24853;-57
2022/05/16 07:03:07;;;;;;;;;11.50;11.50;;;26.68;97935.91;;;;117079;1193;25433;-58
2022/05/16 07:05:49;;;;;;;;;9.50;9.50;;;26.70;97936.05;;;;117033;1193;25178;-57
2022/05/16 07:08:19;;;;;;;;;13.75;12.00;;;26.71;97934.59;;;;117065;1193;25132;-57
2022/05/16 07:10:48;;;;;;;;;13.75;12.25;;;26.71;97932.02;;;;117057;1193;25107;-57
2022/05/16 07:13:26;;;;;;;;;13.75;10.00;;;26.71;97928.73;;;;117024;1193;25258;-57
2022/05/16 07:15:55;;;;;;;;;10.33;10.00;;;26.73;97927.30;;;;117086;1191;25545;-57
2022/05/16 07:18:24;;;;;;;;;9.75;9.75;;;26.72;97926.70;;;;117031;1192;25207;-57
2022/05/16 07:20:52;;;;;;;;;12.75;11.75;;;26.71;97926.05;;;;117077;1193;25405;-57
2022/05/16 07:23:20;;;;;;;;;13.25;10.25;;;26.68;97923.59;;;;116974;1191;25075;-57
2022/05/16 07:28:35;;;;;;;;;11.67;10.67;;;26.67;97923.44;;;;117048;1193;25638;-57
2022/05/16 07:31:04;;;;;;;;;12.67;11.67;;;26.67;97923.27;;;;117076;1193;24801;-57
2022/05/16 07:33:32;;;;;;;;;12.00;10.00;;;26.67;97919.48;;;;117035;1191;25496;-57
2022/05/16 07:36:00;;;;;;;;;11.00;10.00;;;26.67;97920.50;;;;117036;1192;25373;-58
2022/05/16 07:38:28;;;;;;;;;13.00;11.50;;;26.67;97916.69;;;;116993;1193;25051;-57
2022/05/16 07:40:57;;;;;;;;;10.00;10.00;;;26.66;97917.75;;;;117049;1193;24856;-57
2022/05/16 07:43:26;;;;;;;;;11.33;11.33;;;26.65;97919.66;;;;117031;1192;25348;-56
2022/05/16 07:45:54;;;;;;;;;12.00;11.75;;;26.66;97919.54;;;;117053;1193;25052;-58
2022/05/16 07:48:22;;;;;;;;;11.75;11.00;;;26.67;97921.16;;;;117001;1193;25138;-56
2022/05/16 07:50:50;;;;;;;;;9.33;9.33;;;26.66;97917.90;;;;117028;1193;25122;-56
2022/05/16 07:53:19;;;;;;;;;11.00;11.00;;;26.67;97919.06;;;;117032;1192;24779;-57
2022/05/16 07:55:52;;;;;;;;;13.50;12.00;;;26.66;97917.13;;;;117148;1193;24878;-57
2022/05/16 07:58:20;;;;;;;;;10.00;10.00;;;26.69;97915.48;;;;117069;1193;25303;-57
2022/05/16 08:00:55;;;;;;;;;9.33;9.00;;;26.71;97913.98;;;;117024;1193;25585;-56
2022/05/16 08:03:25;;;;;;;;;13.00;11.75;;;26.72;97911.34;;;;117044;1193;24867;-56
2022/05/16 08:05:54;;;;;;;;;13.75;11.25;;;26.73;97908.91;;;;117137;1192;25504;-56
2022/05/16 08:11:12;;;;;;;;;10.25;10.25;;;26.76;97911.41;;;;117042;1193;26109;-56
2022/05/16 08:13:44;;;;;;;;;9.00;8.00;;;26.74;97909.52;;;;117070;1192;25743;-57
2022/05/16 08:16:12;;;;;;;;;11.67;11.00;;;26.73;97908.91;;;;117136;1193;25155;-57
2022/05/16 08:18:41;;;;;;;;;13.50;9.00;;;26.73;97908.28;;;;117003;1193;25819;-57
2022/05/16 08:21:10;;;;;;;;;12.67;10.67;;;26.72;97910.14;;;;117024;1192;24853;-57
2022/05/16 08:23:39;;;;;;;;;8.75;7.75;;;26.72;97909.79;;;;117075;1191;25687;-57
2022/05/16 08:26:08;;;;;;;;;11.00;10.50;;;26.73;97905.46;;;;117061;1193;24790;-57
2022/05/16 08:28:36;;;;;;;;;11.00;11.00;;;26.74;97906.65;;;;116980;1194;25433;-55
2022/05/16 08:31:04;;;;;;;;;12.25;11.00;;;26.74;97903.42;;;;117005;1193;25026;-57
2022/05/16 08:33:34;;;;;;;;;9.50;8.50;;;26.73;97902.44;;;;117069;1192;24845;-57
2022/05/16 08:41:50;;;;;;;;;8.00;8.00;;;26.74;97906.85;;;;117011;1192;25520;-57
2022/05/16 08:44:21;;;;;;;;;7.75;7.75;;;26.77;97904.34;;;;117093;1193;25052;-57
2022/05/16 08:47:21;;;;;;;;;12.67;11.33;;;26.79;97903.52;;;;117043;1193;25667;-58
2022/05/16 08:49:57;;;;;;;;;13.67;12.00;;;26.82;97904.14;;;;117014;1191;25102;-59
2022/05/16 08:52:27;;;;;;;;;8.25;8.25;;;26.81;97904.47;;;;117002;1192;24822;-57
2022/05/16 08:55:16;;;;;;;;;11.00;9.00;;;26.78;97902.70;;;;117026;1193;25167;-56
2022/05/16 08:57:49;;;;;;;;;9.00;8.33;;;26.76;97906.01;;;;117088;1193;25400;-56
2022/05/16 09:00:48;;;;;;;;;11.67;10.67;;;26.75;97905.27;;;;117075;1191;24841;-56
2022/05/16 09:03:23;;;;;;;;;11.00;11.00;;;26.81;97905.85;;;;117145;1191;25720;-57
2022/05/16 09:06:05;;;;;;;;;9.25;9.25;;;26.83;97902.95;;;;117042;1192;25430;-57
2022/05/16 09:08:42;;;;;;;;;10.75;10.50;;;26.83;97899.48;;;;117045;1193;25459;-56
2022/05/16 09:11:19;;;;;;;;;12.25;10.00;;;26.82;97899.74;;;;117065;1193;25040;-56
2022/05/16 09:14:38;;;;;;;;;10.50;10.50;;;26.82;97899.20;;;;117058;1193;25335;-56
2022/05/16 09:17:34;;;;;;;;;10.33;9.67;;;26.96;97900.92;;;;116808;1194;24789;-57
2022/05/16 09:20:16;;;;;;;;;13.25;11.00;;;27.02;97901.35;;;;117605;1193;25133;-61
2022/05/16 09:23:07;;;;;;;;;8.00;8.00;;;27.30;97903.39;;;;117202;1193;25347;-64
2022/05/16 09:25:41;;;;;;;;;14.00;12.00;;;27.30;97904.55;;;;117142;1193;25516;-62
2022/05/16 09:31:00;;;;;;;;;10.75;10.75;;;27.34;97907.36;;;;117099;1194;25641;-56
2022/05/16 09:33:38;;;;;;;;;12.00;11.33;;;27.36;97905.13;;;;117203;1193;25393;-59
2022/05/16 09:36:12;;;;;;;;;10.33;10.33;;;27.39;97898.46;;;;117087;1194;25553;-60
2022/05/16 09:38:45;;;;;;;;;9.50;9.50;;;27.37;97894.41;;;;117150;1193;25470;-57
2022/05/16 09:41:35;;;;;;;;;15.25;11.00;;;27.37;97890.59;;;;117187;1193;25295;-56
2022/05/16 09:44:21;;;;;;;;;9.00;8.00;;;27.42;97886.02;;;;117438;1193;25033;-59
2022/05/16 09:47:28;;;;;;;;;10.00;10.00;;;27.58;97885.89;;;;117233;1193;25445;-58
2022/05/16 09:50:20;;;;;;;;;11.00;9.75;;;27.65;97883.98;;;;117064;1192;25480;-66
2022/05/16 09:52:59;;;;;;;;;11.75;8.25;;;27.60;97884.58;;;;117151;1191;26083;-58
2022/05/16 09:55:41;;;;;;;;;10.33;9.33;;;27.51;97881.64;;;;117059;1193;25437;-61
2022/05/16 09:58:49;;;;;;;;;8.25;8.25;;;27.48;97879.17;;;;117065;1192;24847;-56
2022/05/16 10:01:37;;;;;;;;;13.50;11.75;;;27.61;97873.36;;;;116773;1196;25181;-63
2022/05/16 10:04:10;;;;;;;;;12.00;10.00;;;27.64;97869.70;;;;117082;1193;25356;-63
2022/05/16 10:06:41;;;;;;;;;15.67;14.00;;;27.64;97868.86;;;;117077;1193;24887;-58
2022/05/16 10:09:14;;;;;;;;;12.75;12.50;;;27.61;97867.95;;;;117097;1194;24833;-68
2022/05/16 10:11:50;;;;;;;;;13.00;12.50;;;27.59;97869.40;;;;117127;1193;25487;-63
2022/05/16 10:14:23;;;;;;;;;13.33;11.67;;;27.61;97866.55;;;;117232;1193;25287;-61
2022/05/16 10:16:56;;;;;;;;;15.33;13.67;;;27.61;97868.48;;;;117155;1193;24804;-61
2022/05/16 10:19:27;;;;;;;;;11.00;11.00;;;27.61;97866.83;;;;117164;1193;25284;-65
2022/05/16 10:22:19;;;;;;;;;12.75;10.50;;;27.65;97870.69;;;;117148;1193;25023;-68
2022/05/16 10:24:53;;;;;;;;;14.75;11.00;;;27.71;97866.45;;;;117177;1193;25316;-60
2022/05/16 10:27:36;;;;;;;;;10.25;9.25;;;27.73;97864.52;;;;117192;1193;24771;-59
2022/05/16 10:30:09;;;;;;;;;11.75;11.75;;;27.79;97864.04;;;;117279;1191;25643;-63
2022/05/16 10:35:35;;;;;;;;;15.00;15.00;;;27.84;97855.02;;;;117173;1193;24820;-63
2022/05/16 10:38:14;;;;;;;;;15.67;14.67;;;27.78;97850.80;;;;117044;1193;25417;-60
2022/05/16 10:40:57;;;;;;;;;16.50;13.50;;;27.77;97850.61;;;;117213;1193;25693;-55
2022/05/16 10:43:53;;;;;;;;;14.50;14.25;;;27.87;97847.46;;;;117128;1193;25352;-59
2022/05/16 10:46:31;;;;;;;;;15.00;13.33;;;27.89;97842.84;;;;117192;1192;25378;-61
2022/05/16 10:49:25;;;;;;;;;23.00;16.50;;;27.93;97842.00;;;;117200;1193;25273;-65
2022/05/16 10:52:12;;;;;;;;;21.75;17.50;;;27.99;97838.20;;;;117087;1193;25216;-64
2022/05/16 10:54:44;;;;;;;;;17.50;16.00;;;28.06;97832.86;;;;117047;1192;24968;-66
2022/05/16 10:57:39;;;;;;;;;18.75;16.25;;;27.99;97830.33;;;;117157;1193;24731;-60
2022/05/16 11:00:21;;;;;;;;;16.67;14.00;;;28.03;97826.94;;;;117235;1193;24866;-58
2022/05/16 11:02:55;;;;;;;;;19.75;17.50;;;28.06;97824.52;;;;117207;1193;25553;-62
2022/05/16 11:05:38;;;;;;;;;21.75;17.00;;;28.11;97826.39;;;;117197;1192;25573;-57
2022/05/16 11:08:32;;;;;;;;;17.00;16.50;;;28.04;97826.27;;;;117301;1192;25587;-58
2022/05/16 11:11:10;;;;;;;;;20.75;16.25;;;28.16;97821.93;;;;117226;1192;25053;-61
2022/05/16 11:14:07;;;;;;;;;17.50;16.50;;;28.16;97824.05;;;;117177;1193;24758;-57
2022/05/16 11:16:38;;;;;;;;;17.00;15.00;;;28.10;97823.04;;;;117189;1191;25394;-70
2022/05/16 11:19:32;;;;;;;;;14.75;11.00;;;28.08;97828.41;;;;117319;1193;25289;-57
2022/05/16 11:22:25;;;;;;;;;20.00;15.75;;;28.18;97826.40;;;;117446;1192;25548;-63
2022/05/16 11:25:15;;;;;;;;;18.00;18.00;;;28.20;97822.13;;;;117251;1193;25239;-64
2022/05/16 11:28:04;;;;;;;;;18.25;16.25;;;28.18;97821.13;;;;117178;1191;25447;-62
2022/05/16 11:31:09;;;;;;;;;15.00;15.00;;;28.19;97816.38;;;;117165;1193;25761;-61
2022/05/16 11:34:00;;;;;;;;;12.50;12.00;;;28.21;97812.51;;;;117567;1193;25126;-61
2022/05/16 11:37:08;;;;;;;;;13.00;12.33;;;28.37;97806.03;;;;117543;1193;24840;-65
2022/05/16 11:39:51;;;;;;;;;14.50;12.75;;;28.53;97802.86;;;;117506;1193;24933;-62
2022/05/16 11:42:41;;;;;;;;;19.00;13.50;;;28.58;97801.07;;;;117424;1192;25342;-63
2022/05/16 11:45:43;;;;;;;;;20.50;15.50;;;28.57;97803.55;;;;117648;1193;25478;-61
2022/05/16 11:48:27;;;;;;;;;14.75;9.25;;;28.65;97798.58;;;;117283;1195;24874;-60
2022/05/16 11:51:36;;;;;;;;;16.25;15.00;;;28.72;97797.52;;;;117259;1193;25327;-59
2022/05/16 11:54:13;;;;;;;;;12.25;11.50;;;28.76;97795.79;;;;117920;1193;25379;-59
2022/05/16 12:02:30;;;;;;;;;16.33;15.00;;;28.93;97795.31;;;;117628;1193;25558;-61
2022/05/16 12:05:11;;;;;;;;;13.00;12.00;;;28.85;97793.26;;;;117755;1193;25359;-61
2022/05/16 12:07:46;;;;;;;;;12.00;11.33;;;28.84;97789.11;;;;117683;1191;25853;-61
2022/05/16 12:10:29;;;;;;;;;13.50;13.00;;;28.83;97785.41;;;;117820;1193;25373;-59
2022/05/16 12:13:26;;;;;;;;;13.00;13.00;;;28.89;97786.02;;;;117979;1193;25628;-59
2022/05/16 12:16:18;;;;;;;;;15.25;14.00;;;29.05;97784.55;;;;117951;1192;25827;-58
2022/05/16 12:19:17;;;;;;;;;10.75;8.50;;;29.12;97775.90;;;;118310;1193;26501;-62
2022/05/16 12:21:58;;;;;;;;;12.00;9.50;;;29.27;97772.36;;;;118275;1191;25672;-63
2022/05/16 12:24:29;;;;;;;;;15.75;12.50;;;29.36;97768.21;;;;118546;1191;25850;-63
2022/05/16 12:27:06;;;;;;;;;14.50;11.00;;;29.47;97766.52;;;;118359;1193;25481;-60
2022/05/16 12:29:52;;;;;;;;;17.75;13.25;;;29.55;97764.15;;;;118200;1193;24980;-61
2022/05/16 12:32:51;;;;;;;;;13.75;13.75;;;29.59;97764.55;;;;118038;1193;25228;-63
2022/05/16 12:35:41;;;;;;;;;12.75;12.25;;;29.65;97764.15;;;;118186;1193;25407;-61
2022/05/16 12:38:15;;;;;;;;;12.00;11.25;;;29.61;97763.70;;;;118089;1193;26368;-63
2022/05/16 12:40:59;;;;;;;;;14.75;14.25;;;29.54;97761.16;;;;118038;1193;25339;-61
2022/05/16 12:44:17;;;;;;;;;17.50;16.50;;;29.52;97761.08;;;;117909;1192;25315;-73
2022/05/16 12:47:11;;;;;;;;;14.00;12.00;;;29.52;97758.94;;;;117969;1193;25452;-59
2022/05/16 12:50:03;;;;;;;;;11.50;10.25;;;29.48;97752.23;;;;117878;1193;25490;-61
2022/05/16 12:52:45;;;;;;;;;19.50;14.50;;;29.62;97746.42;;;;117923;1193;25668;-67
2022/05/16 12:55:54;;;;;;;;;16.00;14.00;;;29.47;97742.67;;;;117810;1193;25231;-62
2022/05/16 12:58:29;;;;;;;;;10.67;10.67;;;29.39;97743.63;;;;117993;1192;25342;-60
2022/05/16 13:01:21;;;;;;;;;14.00;14.00;;;29.41;97738.61;;;;117651;1193;25642;-56
2022/05/16 13:04:03;;;;;;;;;16.00;14.33;;;29.40;97736.14;;;;117988;1193;25605;-56
2022/05/16 13:06:47;;;;;;;;;14.25;11.25;;;29.44;97730.96;;;;117989;1192;25481;-56
2022/05/16 13:09:30;;;;;;;;;11.33;11.33;;;29.42;97729.27;;;;117906;1193;25393;-55